Pas de vigilance météorologique particulière.    Il n'y a aucun avertissement


Webcam Plus d'informations Webcam


vous aimez ? un don permettra le maintien du site

Vigilance Météo
Alertes météo pour la Belgique

Station voisine de DeulemontWebsite of another weatherstation

InfometeoRéférentiel météo en Belgique

Notre ancien site Autre version du site

Autre présentation du siteun concentré d'infos sur une page

le temps à la côte Météo côtière

épaves en mer du Nord Archéologie maritime

orages previsions orages



Marées
Alertes météo pour la France
 

Rapports METAR à proximité

   
LFQQ - Lille/Lesquin, France
Distance: SE 22 km
Mise à jour: 23-01-2018 06:00
Nuageux  
Nuageux  
   Vent: SSO 19 km/h
Vent: SSO 19 km/h
Température: 7°C
éolien: 4°C
Point de rosée: 5°C
Humidité: 87%
Baromètre: 1021 hPa
Nuageux: Overcast
visibilité: More then 10 km
Détails des nuages: Peu de nuages 762 m,
Nuageux 1005.8 m
LFQQ 230500Z AUTO 20010KT 9999 FEW025 OVC033 07/05 Q1021 NOSIG
EBFN - Koksijde (bel-Af, Belgium
Distance: NNO 42 km
Mise à jour: 23-01-2018 06:25
Nuageux  
Nuageux  
   Vent: Sud 15 km/h
Vent: Sud 15 km/h
Température: 7°C
éolien: 4°C
Point de rosée: 6°C
Humidité: 93%
Baromètre: 1020 hPa
Nuageux: Mostly Cloudy
visibilité: More then 10 km
Détails des nuages: Nuageux 1005.8 m
EBFN 230525Z 19008KT 9999 BKN033 07/06 Q1020 BLU
EBOS - Oostende Airport, Belgium
Distance: N 53 km
Mise à jour: 23-01-2018 06:20
Nuageux  
Nuageux  
   Vent: SSO 17 km/h
Vent: SSO 17 km/h
Température: 6°C
éolien: 3°C
Point de rosée: 4°C
Humidité: 87%
Baromètre: 1020 hPa
Nuageux: Mostly Cloudy
visibilité: More then 10 km
Détails des nuages: Peu de nuages 609.6 m,
Nuageux 1005.8 m
EBOS 230520Z 20009KT 9999 FEW020 BKN033 06/04 Q1020 NOSIG
EBKT - Kortrijk, Belgium
Distance: ESE 66 km
Mise à jour: 01-01-1970 01:00
PAS actuel
  
  
   Vent: calme
Vent: calme
LFAQ - Bray, France
Distance: S 86 km
Mise à jour: 23-01-2018 06:30
Nuageux  
Nuageux  
   Vent: Sud 15 km/h
Vent: Sud 15 km/h
Température: 7°C
éolien: 4°C
Point de rosée: 6°C
Humidité: 93%
Baromètre: 1022 hPa
Nuageux: Overcast
visibilité: More then 10 km
Détails des nuages: Nuageux 944.9 m
LFAQ 230530Z AUTO 19008KT 9999 OVC031 07/06 Q1022 NOSIG
EHFS - Vlissingen, Netherlands
Distance: NNE 93 km
Mise à jour: 23-01-2018 06:25
Nuageux  
Nuageux  
   Vent: SSO 22 km/h
Vent: SSO 22 km/h
Température: 6°C
éolien: 2°C
Point de rosée: 4°C
Humidité: 87%
Baromètre: 1019 hPa
Nuageux: Overcast
visibilité: More then 10 km
Détails des nuages: Nuageux 914.4 m
EHFS 230525Z AUTO 20012KT 9999 OVC030/// 06/04 Q1019 W///H///
LFAT - Le Touquet/P. Pl, France
Distance: OSO 94 km
Mise à jour: 23-01-2018 06:30
Nuageux  
Nuageux  
   Vent: SO 13 km/h
Vent: SO 13 km/h
Température: 9°C
éolien: 7°C
Point de rosée: 7°C
Humidité: 87%
Baromètre: 1021 hPa
Nuageux: Overcast
visibilité: More then 10 km
Détails des nuages: Partiellement nuageux 548.6 m,
Nuageux 1188.7 m
LFAT 230530Z AUTO 22007KT 190V260 9999 SCT018 OVC039 09/07 Q1021 NOSIG
  

Script développé par  Saratoga-weather.org Adapté pour le modèle par  Weerstation Leuven

Vous trouverez notre info météo Également à:

UK Metoffice

European Weather Network

WeatherCloud

Weather Underground

AWEKAS

Citizen Weather Observer Program (CWOP)

HAMweather, WeatherForYou, PWS Weather

Équipement que nous utilisons:

Station de Météo
Oregon WMR 200

Programme Météo
cumulus

Ordinateur Météo
Zotac ID41

Provider
Hébergé par

Oregon WMR 200

cumulus

Zotac ID41

Hébergé par